createdAt,value
2023-02-09T00:01:48.965Z,69.85
2023-02-09T00:04:16.945Z,69.73
2023-02-09T00:06:44.888Z,69.88
2023-02-09T00:09:12.846Z,69.83
2023-02-09T00:11:59.350Z,69.65
2023-02-09T00:14:27.708Z,69.41
2023-02-09T00:16:55.630Z,69.63
2023-02-09T00:19:23.472Z,69.75
2023-02-09T00:21:51.663Z,69.56
2023-02-09T00:24:19.618Z,69.46
2023-02-09T00:26:48.316Z,69.84
2023-02-09T00:29:16.370Z,70.29
2023-02-09T00:31:44.250Z,70.03
2023-02-09T00:34:12.221Z,70.26
2023-02-09T00:36:40.131Z,70.45
2023-02-09T00:39:08.416Z,70.73
2023-02-09T00:41:55.157Z,70.93
2023-02-09T00:44:23.326Z,70.88
2023-02-09T00:46:52.438Z,70.70
2023-02-09T00:49:20.712Z,70.64
2023-02-09T00:51:48.708Z,70.89
2023-02-09T00:54:19.512Z,70.90
2023-02-09T00:56:47.482Z,70.81
2023-02-09T00:59:15.999Z,70.65
2023-02-09T01:01:44.565Z,70.62
2023-02-09T01:04:12.607Z,70.51
2023-02-09T01:06:40.869Z,70.17
2023-02-09T01:09:08.823Z,70.32
2023-02-09T01:11:36.788Z,70.37
2023-02-09T01:14:04.752Z,70.44
2023-02-09T01:16:32.974Z,70.84
2023-02-09T01:19:03.065Z,71.48
2023-02-09T01:21:31.228Z,71.47
2023-02-09T01:23:59.742Z,71.21
2023-02-09T01:26:27.978Z,70.99
2023-02-09T01:28:56.276Z,71.25
2023-02-09T01:31:27.773Z,71.12
2023-02-09T01:33:58.075Z,71.05
2023-02-09T01:36:26.633Z,70.83
2023-02-09T01:38:55.950Z,70.78
2023-02-09T01:41:24.630Z,70.90
2023-02-09T01:44:01.194Z,71.26
2023-02-09T01:46:35.089Z,71.57
2023-02-09T01:49:06.373Z,71.48
2023-02-09T01:51:45.064Z,71.20
2023-02-09T01:54:20.945Z,71.21
2023-02-09T01:56:55.207Z,71.28
2023-02-09T01:59:24.206Z,71.36
2023-02-09T02:01:53.165Z,71.02
2023-02-09T02:04:22.028Z,71.55
2023-02-09T02:06:52.498Z,71.71
2023-02-09T02:09:20.900Z,71.47
2023-02-09T02:11:49.136Z,71.75
2023-02-09T02:14:35.309Z,72.03
2023-02-09T02:17:31.665Z,72.01
2023-02-09T02:20:05.492Z,71.57
2023-02-09T02:23:17.817Z,71.27
2023-02-09T02:26:06.831Z,70.86
2023-02-09T02:28:56.290Z,70.88
2023-02-09T02:31:39.499Z,70.98
2023-02-09T02:34:17.776Z,71.18
2023-02-09T02:37:16.631Z,71.13
2023-02-09T02:40:22.808Z,70.75
2023-02-09T02:42:59.563Z,71.23
2023-02-09T02:46:05.796Z,71.56
2023-02-09T02:48:41.682Z,71.55
2023-02-09T02:51:29.040Z,71.98
2023-02-09T02:54:00.587Z,72.00
2023-02-09T02:56:42.161Z,71.84
2023-02-09T02:59:14.600Z,72.05
2023-02-09T03:01:53.764Z,72.33
2023-02-09T03:04:22.980Z,72.29
2023-02-09T03:06:51.404Z,72.17
2023-02-09T03:09:19.494Z,72.35
2023-02-09T03:11:51.939Z,72.51
2023-02-09T03:14:43.543Z,72.33
2023-02-09T03:17:37.382Z,71.98
2023-02-09T03:20:15.877Z,71.84
2023-02-09T03:22:49.716Z,71.82
2023-02-09T03:25:28.837Z,71.55
2023-02-09T03:28:12.866Z,71.27
2023-02-09T03:30:42.656Z,71.20
2023-02-09T03:33:26.314Z,71.06
2023-02-09T03:36:00.439Z,70.61
2023-02-09T03:38:28.712Z,70.47
2023-02-09T03:40:56.682Z,70.72
2023-02-09T03:43:44.448Z,70.89
2023-02-09T03:46:12.472Z,70.86
2023-02-09T03:48:40.361Z,70.60
2023-02-09T03:51:08.438Z,70.89
2023-02-09T03:53:37.164Z,71.09
2023-02-09T03:56:05.851Z,71.20
2023-02-09T03:58:36.254Z,71.19
2023-02-09T04:01:07.709Z,71.42
2023-02-09T04:03:37.672Z,71.58
2023-02-09T04:06:05.900Z,71.72
2023-02-09T04:08:33.870Z,71.81
2023-02-09T04:11:01.840Z,71.58
2023-02-09T04:13:30.049Z,71.26
2023-02-09T04:15:57.973Z,71.27
2023-02-09T04:18:26.087Z,71.00
2023-02-09T04:20:53.967Z,70.55
2023-02-09T04:23:21.916Z,70.44
2023-02-09T04:25:49.933Z,70.93
2023-02-09T04:28:18.027Z,71.37
2023-02-09T04:30:46.386Z,71.31
2023-02-09T04:33:14.572Z,70.97
2023-02-09T04:35:45.812Z,70.69
2023-02-09T04:38:16.117Z,70.83
2023-02-09T04:40:44.424Z,71.33
2023-02-09T04:43:12.822Z,71.22
2023-02-09T04:45:42.190Z,71.13
2023-02-09T04:48:16.168Z,71.15
2023-02-09T04:50:44.639Z,70.81
2023-02-09T04:53:13.283Z,70.82
2023-02-09T04:55:43.487Z,71.12
2023-02-09T04:58:31.856Z,71.35
2023-02-09T05:01:00.226Z,71.04
2023-02-09T05:03:28.877Z,70.91
2023-02-09T05:05:58.454Z,70.73
2023-02-09T05:08:26.444Z,70.82
2023-02-09T05:10:55.851Z,71.12
2023-02-09T05:13:25.081Z,71.29
2023-02-09T05:15:53.954Z,71.41
2023-02-09T05:18:22.664Z,71.47
2023-02-09T05:20:50.907Z,71.43
2023-02-09T05:23:19.468Z,71.25
2023-02-09T05:25:48.445Z,71.22
2023-02-09T05:28:16.379Z,71.39
2023-02-09T05:30:45.123Z,71.55
2023-02-09T05:33:13.369Z,71.31
2023-02-09T05:35:41.259Z,71.10
2023-02-09T05:38:09.828Z,70.82
2023-02-09T05:40:37.802Z,70.88
2023-02-09T05:43:05.770Z,71.07
2023-02-09T05:45:33.710Z,71.59
2023-02-09T05:48:01.662Z,71.98
2023-02-09T05:50:29.621Z,72.28
2023-02-09T05:53:00.656Z,71.92
2023-02-09T05:55:28.509Z,71.91
2023-02-09T05:57:56.375Z,72.15
2023-02-09T06:00:25.380Z,72.04
2023-02-09T06:02:53.260Z,72.04
2023-02-09T06:05:22.079Z,72.28
2023-02-09T06:07:50.632Z,72.12
2023-02-09T06:10:19.062Z,72.06
2023-02-09T06:12:47.203Z,72.04
2023-02-09T06:15:18.068Z,71.97
2023-02-09T06:17:46.547Z,72.31
2023-02-09T06:20:14.483Z,72.47
2023-02-09T06:22:42.426Z,72.21
2023-02-09T06:25:10.416Z,71.97
2023-02-09T06:27:38.361Z,71.73
2023-02-09T06:30:07.132Z,71.49
2023-02-09T06:32:35.095Z,71.57
2023-02-09T06:35:03.083Z,71.69
2023-02-09T06:37:30.990Z,71.88
2023-02-09T06:39:58.892Z,71.96
2023-02-09T06:42:43.743Z,71.63
2023-02-09T06:45:14.727Z,71.29
2023-02-09T06:47:43.948Z,70.99
2023-02-09T06:50:13.508Z,70.73
2023-02-09T06:52:41.886Z,70.96
2023-02-09T06:55:09.962Z,71.06
2023-02-09T06:57:37.981Z,71.11
2023-02-09T07:00:08.600Z,70.91
2023-02-09T07:02:36.829Z,70.80
2023-02-09T07:05:06.014Z,70.93
2023-02-09T07:07:34.060Z,70.57
2023-02-09T07:10:03.725Z,70.66
2023-02-09T07:12:31.872Z,70.54
2023-02-09T07:15:01.128Z,70.33
2023-02-09T07:17:32.392Z,70.29
2023-02-09T07:20:00.333Z,70.71
2023-02-09T07:22:28.792Z,70.63
2023-02-09T07:24:57.339Z,70.61
2023-02-09T07:27:25.877Z,70.92
2023-02-09T07:29:53.945Z,70.82
2023-02-09T07:32:24.036Z,70.72
2023-02-09T07:34:52.027Z,71.03
2023-02-09T07:37:20.113Z,71.46
2023-02-09T07:39:48.855Z,71.03
2023-02-09T07:42:17.261Z,70.86
2023-02-09T07:44:45.125Z,70.48
2023-02-09T07:47:13.117Z,70.42
2023-02-09T07:49:41.135Z,69.99
2023-02-09T07:52:09.523Z,70.18
2023-02-09T07:54:37.554Z,70.04
2023-02-09T07:57:05.415Z,69.74
2023-02-09T07:59:33.506Z,69.69
2023-02-09T08:02:01.936Z,69.73
2023-02-09T08:04:31.390Z,69.33
2023-02-09T08:07:00.685Z,69.58
2023-02-09T08:09:30.068Z,69.93
2023-02-09T08:12:03.394Z,69.81
2023-02-09T08:14:43.230Z,69.87
2023-02-09T08:17:20.843Z,69.81
2023-02-09T08:20:02.725Z,69.37
2023-02-09T08:22:35.332Z,69.45
2023-02-09T08:25:05.490Z,69.15
2023-02-09T08:27:34.737Z,68.89
2023-02-09T08:30:03.341Z,68.12
2023-02-09T08:32:40.561Z,67.83
2023-02-09T08:35:09.053Z,67.37
2023-02-09T08:37:37.372Z,67.29
2023-02-09T08:40:05.884Z,67.30
2023-02-09T08:42:34.057Z,67.50
2023-02-09T08:45:06.054Z,67.42
2023-02-09T08:47:34.408Z,67.75
2023-02-09T08:50:02.985Z,67.79
2023-02-09T08:52:31.348Z,67.98
2023-02-09T08:55:00.134Z,68.00
2023-02-09T08:57:44.080Z,67.94
2023-02-09T09:00:21.304Z,67.73
2023-02-09T09:02:57.630Z,67.54
2023-02-09T09:05:32.214Z,67.18
2023-02-09T09:08:10.310Z,67.56
2023-02-09T09:10:46.294Z,67.26
2023-02-09T09:13:23.677Z,67.00
2023-02-09T09:16:16.056Z,67.10
2023-02-09T09:18:50.870Z,66.96
2023-02-09T09:21:27.162Z,66.96
2023-02-09T09:23:55.933Z,67.40
2023-02-09T09:26:30.731Z,67.62
2023-02-09T09:29:00.466Z,67.38
2023-02-09T09:31:40.338Z,67.53
2023-02-09T09:34:56.167Z,67.56
2023-02-09T09:37:46.315Z,68.28
2023-02-09T09:40:41.611Z,68.86
2023-02-09T09:43:37.582Z,68.90
2023-02-09T09:46:39.930Z,68.62
2023-02-09T09:49:33.089Z,68.45
2023-02-09T09:53:15.911Z,68.49
2023-02-09T09:56:01.723Z,68.65
2023-02-09T09:58:41.493Z,68.69
2023-02-09T10:01:21.702Z,68.53
2023-02-09T10:04:14.151Z,68.39
2023-02-09T10:06:59.081Z,68.06
2023-02-09T10:09:44.488Z,68.19
2023-02-09T10:12:55.506Z,67.58
2023-02-09T10:15:29.900Z,67.49
2023-02-09T10:18:03.792Z,66.99
2023-02-09T10:20:57.430Z,66.50
2023-02-09T10:23:28.093Z,66.29
2023-02-09T10:26:24.595Z,65.30
2023-02-09T10:29:13.925Z,65.03
2023-02-09T10:31:51.378Z,65.21
2023-02-09T10:34:39.089Z,64.77
2023-02-09T10:37:20.691Z,64.46
2023-02-09T10:40:20.018Z,64.10
2023-02-09T10:43:22.306Z,63.45
2023-02-09T10:45:58.756Z,63.19
2023-02-09T10:48:28.476Z,62.74
2023-02-09T10:51:00.616Z,62.67
2023-02-09T10:53:41.421Z,62.34
2023-02-09T10:56:20.555Z,62.13
2023-02-09T10:58:53.404Z,61.03
2023-02-09T11:01:28.769Z,60.76
2023-02-09T11:04:06.715Z,60.11
2023-02-09T11:06:51.166Z,59.96
2023-02-09T11:09:26.877Z,59.69
2023-02-09T11:11:55.713Z,59.86
2023-02-09T11:14:24.426Z,59.61
2023-02-09T11:17:03.848Z,59.60
2023-02-09T11:19:37.739Z,59.27
2023-02-09T11:22:13.112Z,58.96
2023-02-09T11:24:56.287Z,59.29
2023-02-09T11:27:45.555Z,58.90
2023-02-09T11:30:36.204Z,58.23
2023-02-09T11:33:12.302Z,58.01
2023-02-09T11:35:46.627Z,57.91
2023-02-09T11:38:23.627Z,57.96
2023-02-09T11:40:56.531Z,58.11
2023-02-09T11:43:27.767Z,58.35
2023-02-09T11:46:02.037Z,58.11
2023-02-09T11:48:41.127Z,57.77
2023-02-09T11:51:18.993Z,57.54
2023-02-09T11:54:00.815Z,57.20
2023-02-09T11:56:29.233Z,56.49
2023-02-09T11:58:57.113Z,56.50
2023-02-09T12:01:31.200Z,56.45
2023-02-09T12:04:01.928Z,56.36
2023-02-09T12:06:41.219Z,55.91
2023-02-09T12:09:28.653Z,53.38
2023-02-09T12:12:10.626Z,52.16
2023-02-09T12:14:56.676Z,51.45
2023-02-09T12:17:30.623Z,49.32
2023-02-09T12:20:01.495Z,47.30
2023-02-09T12:22:35.255Z,46.50
2023-02-09T12:25:12.013Z,45.85
2023-02-09T12:28:04.111Z,45.62
2023-02-09T12:30:41.041Z,46.09
2023-02-09T12:33:23.894Z,46.75
2023-02-09T12:36:02.801Z,45.86
2023-02-09T12:38:56.510Z,46.21
2023-02-09T12:41:31.217Z,45.71
2023-02-09T12:44:08.378Z,45.59
2023-02-09T12:46:45.452Z,46.05
2023-02-09T12:49:17.898Z,46.86
2023-02-09T12:51:54.498Z,47.12
2023-02-09T12:54:47.239Z,47.22
2023-02-09T12:57:15.225Z,47.23
2023-02-09T13:00:03.643Z,46.87
2023-02-09T13:02:50.776Z,46.98
2023-02-09T13:05:38.900Z,46.32
2023-02-09T13:08:20.234Z,46.08
2023-02-09T13:10:50.872Z,46.68
2023-02-09T13:13:53.431Z,47.05
2023-02-09T13:16:24.615Z,46.66
2023-02-09T13:19:19.789Z,47.84
2023-02-09T13:22:21.585Z,48.78
2023-02-09T13:24:59.433Z,48.88
2023-02-09T13:27:30.157Z,48.59
2023-02-09T13:29:59.593Z,48.61
2023-02-09T13:33:02.517Z,48.64
2023-02-09T13:35:36.576Z,48.66
2023-02-09T13:38:24.967Z,48.59
2023-02-09T13:40:57.047Z,48.78
2023-02-09T13:43:33.672Z,48.98
2023-02-09T13:46:02.693Z,49.35
2023-02-09T13:48:33.305Z,49.41
2023-02-09T13:51:19.015Z,49.85
2023-02-09T13:53:58.249Z,50.60
2023-02-09T13:56:27.243Z,50.72
2023-02-09T13:58:55.915Z,51.19
2023-02-09T14:01:33.795Z,51.40
2023-02-09T14:04:13.540Z,51.34
2023-02-09T14:06:48.379Z,51.87
2023-02-09T14:09:31.334Z,52.02
2023-02-09T14:12:09.695Z,52.32
2023-02-09T14:15:00.503Z,52.67
2023-02-09T14:17:35.735Z,52.74
2023-02-09T14:20:17.669Z,52.92
2023-02-09T14:22:45.543Z,52.80
2023-02-09T14:25:13.410Z,52.62
2023-02-09T14:27:46.551Z,52.70
2023-02-09T14:30:23.475Z,53.05
2023-02-09T14:32:54.162Z,52.78
2023-02-09T14:35:25.544Z,53.12
2023-02-09T14:37:56.288Z,53.40
2023-02-09T14:40:27.271Z,53.42
2023-02-09T14:43:02.974Z,53.90
2023-02-09T14:45:43.531Z,54.24
2023-02-09T14:48:26.590Z,54.49
2023-02-09T14:51:00.814Z,54.14
2023-02-09T14:53:31.683Z,54.19
2023-02-09T14:55:59.668Z,54.02
2023-02-09T14:58:32.135Z,53.96
2023-02-09T15:01:02.245Z,53.97
2023-02-09T15:03:30.232Z,54.48
2023-02-09T15:06:02.319Z,54.68
2023-02-09T15:08:33.786Z,54.75
2023-02-09T15:11:28.453Z,54.97
2023-02-09T15:14:00.130Z,55.12
2023-02-09T15:16:28.087Z,55.23
2023-02-09T15:18:56.247Z,55.12
2023-02-09T15:21:24.408Z,55.21
2023-02-09T15:23:52.449Z,55.60
2023-02-09T15:26:22.783Z,55.81
2023-02-09T15:28:50.765Z,55.85
2023-02-09T15:31:18.835Z,55.77
2023-02-09T15:33:47.260Z,55.82
2023-02-09T15:36:19.788Z,56.06
2023-02-09T15:38:48.302Z,56.13
2023-02-09T15:41:36.223Z,56.19
2023-02-09T15:44:49.117Z,56.32
2023-02-09T15:47:35.661Z,56.44
2023-02-09T15:50:03.903Z,56.42
2023-02-09T15:52:32.543Z,56.62
2023-02-09T15:55:00.591Z,56.38
2023-02-09T15:57:28.620Z,56.48
2023-02-09T15:59:56.737Z,56.63
2023-02-09T16:02:25.681Z,56.33
2023-02-09T16:04:53.721Z,56.35
2023-02-09T16:07:26.213Z,56.04
2023-02-09T16:09:54.341Z,56.27
2023-02-09T16:12:22.280Z,56.65
2023-02-09T16:14:52.344Z,56.79
2023-02-09T16:17:21.338Z,56.83
2023-02-09T16:19:49.416Z,57.10
2023-02-09T16:22:17.513Z,57.27
2023-02-09T16:24:46.347Z,57.17
2023-02-09T16:27:24.767Z,57.39
2023-02-09T16:29:52.837Z,57.44
2023-02-09T16:32:25.765Z,57.54
2023-02-09T16:34:55.047Z,57.81
2023-02-09T16:37:31.389Z,57.83
2023-02-09T16:40:01.022Z,58.08
2023-02-09T16:42:29.688Z,58.42
2023-02-09T16:44:57.839Z,58.45
2023-02-09T16:47:27.629Z,58.96
2023-02-09T16:50:05.163Z,58.84
2023-02-09T16:52:33.229Z,58.72
2023-02-09T16:55:06.394Z,58.42
2023-02-09T16:57:34.322Z,58.29
2023-02-09T17:00:02.554Z,58.62
2023-02-09T17:02:49.314Z,58.91
2023-02-09T17:05:37.775Z,58.99
2023-02-09T17:08:08.203Z,58.59
2023-02-09T17:10:36.469Z,58.58
2023-02-09T17:13:07.111Z,58.58
2023-02-09T17:15:44.189Z,58.53
2023-02-09T17:18:19.325Z,58.45
2023-02-09T17:20:56.017Z,58.46
2023-02-09T17:23:27.201Z,58.95
2023-02-09T17:25:55.345Z,59.02
2023-02-09T17:28:25.682Z,58.89
2023-02-09T17:30:58.008Z,58.81
2023-02-09T17:33:29.793Z,59.32
2023-02-09T17:36:24.415Z,59.25
2023-02-09T17:38:46.923Z,59.58
2023-02-09T17:41:46.554Z,59.50
2023-02-09T17:44:34.923Z,59.76
2023-02-09T17:47:13.240Z,60.03
2023-02-09T17:49:41.222Z,60.15
2023-02-09T17:52:17.916Z,60.38
2023-02-09T17:54:46.631Z,60.51
2023-02-09T17:57:16.631Z,60.79
2023-02-09T17:59:46.005Z,60.79
2023-02-09T18:02:16.948Z,61.05
2023-02-09T18:04:45.225Z,61.03
2023-02-09T18:07:20.069Z,60.83
2023-02-09T18:09:48.250Z,60.71
2023-02-09T18:12:21.581Z,60.61
2023-02-09T18:14:49.598Z,60.61
2023-02-09T18:17:17.813Z,60.66
2023-02-09T18:19:46.039Z,60.90
2023-02-09T18:22:17.741Z,61.05
2023-02-09T18:24:46.697Z,61.25
2023-02-09T18:27:18.212Z,61.17
2023-02-09T18:29:46.584Z,61.36
2023-02-09T18:32:16.646Z,61.48
2023-02-09T18:34:44.660Z,61.56
2023-02-09T18:37:15.898Z,61.84
2023-02-09T18:39:46.693Z,62.45
2023-02-09T18:42:16.433Z,62.90
2023-02-09T18:44:44.357Z,62.93
2023-02-09T18:47:12.269Z,63.18
2023-02-09T18:49:40.303Z,63.50
2023-02-09T18:52:08.895Z,63.89
2023-02-09T18:54:37.211Z,63.90
2023-02-09T18:57:05.232Z,63.93
2023-02-09T18:59:33.351Z,64.05
2023-02-09T19:02:01.406Z,64.06
2023-02-09T19:04:29.405Z,63.99
2023-02-09T19:06:58.699Z,64.38
2023-02-09T19:09:27.066Z,64.38
2023-02-09T19:11:55.077Z,64.80
2023-02-09T19:14:38.212Z,64.82
2023-02-09T19:17:15.165Z,64.77
2023-02-09T19:19:44.599Z,64.73
2023-02-09T19:22:19.313Z,64.79
2023-02-09T19:24:48.164Z,64.54
2023-02-09T19:27:18.752Z,64.58
2023-02-09T19:29:46.807Z,64.55
2023-02-09T19:32:15.250Z,64.52
2023-02-09T19:34:45.495Z,64.46
2023-02-09T19:37:14.514Z,64.71
2023-02-09T19:39:52.343Z,65.01
2023-02-09T19:42:21.778Z,65.08
2023-02-09T19:44:50.306Z,64.95
2023-02-09T19:47:18.305Z,65.03
2023-02-09T19:49:46.653Z,65.42
2023-02-09T19:52:15.048Z,65.91
2023-02-09T19:54:43.578Z,66.33
2023-02-09T19:57:11.510Z,66.74
2023-02-09T19:59:39.441Z,66.95
2023-02-09T20:02:07.913Z,66.95
2023-02-09T20:04:35.867Z,66.87
2023-02-09T20:07:04.078Z,66.60
2023-02-09T20:09:31.957Z,66.45
2023-02-09T20:11:59.971Z,66.42
2023-02-09T20:14:30.086Z,66.26
2023-02-09T20:16:59.860Z,65.94
2023-02-09T20:19:28.067Z,65.71
2023-02-09T20:21:55.998Z,65.32
2023-02-09T20:24:24.292Z,64.93
2023-02-09T20:26:52.269Z,65.25
2023-02-09T20:29:22.309Z,65.43
2023-02-09T20:31:50.287Z,65.63
2023-02-09T20:34:18.309Z,65.61
2023-02-09T20:36:48.244Z,65.81
2023-02-09T20:39:17.097Z,65.82
2023-02-09T20:42:05.271Z,66.15
2023-02-09T20:44:52.978Z,66.41
2023-02-09T20:47:21.226Z,67.44
2023-02-09T20:49:49.287Z,67.47
2023-02-09T20:52:17.632Z,67.19
2023-02-09T20:54:45.534Z,67.23
2023-02-09T20:57:13.544Z,67.35
2023-02-09T20:59:41.576Z,67.09
2023-02-09T21:02:12.910Z,66.84
2023-02-09T21:04:41.049Z,66.61
2023-02-09T21:07:09.318Z,66.40
2023-02-09T21:09:38.274Z,66.28
2023-02-09T21:12:06.430Z,66.09
2023-02-09T21:14:41.979Z,65.84
2023-02-09T21:17:11.563Z,65.60
2023-02-09T21:19:39.818Z,65.59
2023-02-09T21:22:08.107Z,65.52
2023-02-09T21:24:39.609Z,65.49
2023-02-09T21:27:08.595Z,65.67
2023-02-09T21:29:36.809Z,65.78
2023-02-09T21:32:06.595Z,65.89
2023-02-09T21:34:34.568Z,65.90
2023-02-09T21:37:02.616Z,65.98
2023-02-09T21:39:31.535Z,66.21
2023-02-09T21:42:18.430Z,66.47
2023-02-09T21:44:46.368Z,66.64
2023-02-09T21:47:14.172Z,66.67
2023-02-09T21:49:42.029Z,66.86
2023-02-09T21:52:10.071Z,66.88
2023-02-09T21:54:38.344Z,66.82
2023-02-09T21:57:06.530Z,66.69
2023-02-09T21:59:34.382Z,66.45
2023-02-09T22:02:03.698Z,66.16
2023-02-09T22:04:32.058Z,66.16
2023-02-09T22:07:00.392Z,66.17
2023-02-09T22:09:28.967Z,66.27
2023-02-09T22:11:56.945Z,66.40
2023-02-09T22:14:25.021Z,66.14
2023-02-09T22:16:53.130Z,66.24
2023-02-09T22:19:28.650Z,66.01
2023-02-09T22:21:58.184Z,66.08
2023-02-09T22:24:26.196Z,66.29
2023-02-09T22:26:54.086Z,66.60
2023-02-09T22:29:22.099Z,66.63
2023-02-09T22:31:50.024Z,66.80
2023-02-09T22:34:18.084Z,66.73
2023-02-09T22:36:46.058Z,66.86
2023-02-09T22:39:14.007Z,66.98
2023-02-09T22:41:44.412Z,67.11
2023-02-09T22:44:13.715Z,67.15
2023-02-09T22:46:44.304Z,66.89
2023-02-09T22:49:20.630Z,66.83
2023-02-09T22:51:50.477Z,66.93
2023-02-09T22:54:21.720Z,66.91
2023-02-09T22:56:52.148Z,67.00
2023-02-09T22:59:20.064Z,67.36
2023-02-09T23:01:48.177Z,67.35
2023-02-09T23:04:16.384Z,67.29
2023-02-09T23:06:44.511Z,67.10
2023-02-09T23:09:13.768Z,66.54
2023-02-09T23:11:42.142Z,66.75
2023-02-09T23:14:11.352Z,67.06
2023-02-09T23:16:41.162Z,66.87
2023-02-09T23:19:13.307Z,67.00
2023-02-09T23:21:44.518Z,67.29
2023-02-09T23:24:14.414Z,67.30
2023-02-09T23:26:42.850Z,67.32
2023-02-09T23:29:14.342Z,67.33
2023-02-09T23:31:43.858Z,67.28
2023-02-09T23:34:14.507Z,67.27
2023-02-09T23:36:42.561Z,67.24
2023-02-09T23:39:19.678Z,67.07
2023-02-09T23:41:47.644Z,66.88
2023-02-09T23:44:15.611Z,67.15
2023-02-09T23:46:47.721Z,67.21
2023-02-09T23:49:15.695Z,66.91
2023-02-09T23:51:44.373Z,66.63
2023-02-09T23:54:12.452Z,66.79
2023-02-09T23:56:40.390Z,67.23
2023-02-09T23:59:11.833Z,67.57
